createdAt,value
2022-12-18T00:01:36.717Z,15.35
2022-12-18T00:04:06.634Z,16.30
2022-12-18T00:06:36.155Z,15.73
2022-12-18T00:09:04.519Z,14.85
2022-12-18T00:11:32.523Z,16.50
2022-12-18T00:14:00.907Z,16.35
2022-12-18T00:16:31.263Z,17.27
2022-12-18T00:18:59.781Z,15.35
2022-12-18T00:21:28.788Z,15.50
2022-12-18T00:23:57.622Z,13.90
2022-12-18T00:26:28.304Z,15.07
2022-12-18T00:29:04.054Z,15.23
2022-12-18T00:31:33.732Z,14.93
2022-12-18T00:34:03.311Z,16.48
2022-12-18T00:36:33.661Z,15.30
2022-12-18T00:39:03.182Z,16.08
2022-12-18T00:41:49.553Z,15.93
2022-12-18T00:44:18.886Z,15.60
2022-12-18T00:46:48.383Z,15.85
2022-12-18T00:49:19.099Z,16.40
2022-12-18T00:51:47.974Z,14.50
2022-12-18T00:54:15.880Z,15.75
2022-12-18T00:56:49.486Z,15.30
2022-12-18T00:59:18.406Z,14.80
2022-12-18T01:01:46.647Z,16.60
2022-12-18T01:04:14.992Z,14.48
2022-12-18T01:06:45.377Z,14.13
2022-12-18T01:09:12.991Z,15.80
2022-12-18T01:11:41.073Z,14.30
2022-12-18T01:14:08.657Z,14.30
2022-12-18T01:16:38.688Z,13.13
2022-12-18T01:19:06.246Z,14.60
2022-12-18T01:21:34.276Z,14.07
2022-12-18T01:24:05.401Z,13.80
2022-12-18T01:26:32.870Z,14.20
2022-12-18T01:29:00.429Z,14.02
2022-12-18T01:31:31.108Z,15.10
2022-12-18T01:34:01.104Z,14.32
2022-12-18T01:36:33.966Z,15.00
2022-12-18T01:39:04.520Z,14.73
2022-12-18T01:41:53.046Z,14.23
2022-12-18T01:44:52.407Z,12.88
2022-12-18T01:47:25.846Z,13.52
2022-12-18T01:49:55.332Z,14.20
2022-12-18T01:52:25.528Z,12.90
2022-12-18T01:54:53.790Z,13.23
2022-12-18T01:57:24.583Z,13.35
2022-12-18T01:59:54.800Z,13.50
2022-12-18T02:02:23.207Z,14.18
2022-12-18T02:04:50.813Z,13.83
2022-12-18T02:07:19.762Z,13.27
2022-12-18T02:10:00.245Z,14.93
2022-12-18T02:12:53.820Z,14.52
2022-12-18T02:15:37.405Z,15.55
2022-12-18T02:18:19.162Z,13.37
2022-12-18T02:21:22.447Z,12.85
2022-12-18T02:24:12.492Z,13.05
2022-12-18T02:26:52.533Z,14.50
2022-12-18T02:29:57.571Z,13.45
2022-12-18T02:32:30.585Z,13.53
2022-12-18T02:35:00.528Z,14.10
2022-12-18T02:37:31.600Z,12.88
2022-12-18T02:40:05.658Z,13.35
2022-12-18T02:42:35.744Z,13.50
2022-12-18T02:45:06.192Z,14.63
2022-12-18T02:47:39.231Z,14.32
2022-12-18T02:50:13.787Z,14.57
2022-12-18T02:53:38.075Z,12.93
2022-12-18T02:56:19.749Z,12.55
2022-12-18T02:58:58.918Z,14.00
2022-12-18T03:01:53.407Z,14.95
2022-12-18T03:04:40.734Z,14.27
2022-12-18T03:07:16.684Z,13.70
2022-12-18T03:09:50.478Z,13.40
2022-12-18T03:13:07.543Z,13.50
2022-12-18T03:15:40.668Z,13.20
2022-12-18T03:18:36.805Z,13.57
2022-12-18T03:21:07.620Z,14.38
2022-12-18T03:23:45.869Z,14.38
2022-12-18T03:26:20.936Z,13.93
2022-12-18T03:28:58.680Z,15.13
2022-12-18T03:31:30.192Z,13.23
2022-12-18T03:34:06.736Z,13.85
2022-12-18T03:36:42.691Z,12.88
2022-12-18T03:39:10.394Z,12.57
2022-12-18T03:42:07.452Z,14.13
2022-12-18T03:44:45.707Z,14.85
2022-12-18T03:47:31.506Z,11.80
2022-12-18T03:50:26.991Z,12.88
2022-12-18T03:53:28.509Z,13.27
2022-12-18T03:55:56.870Z,13.38
2022-12-18T03:58:30.116Z,12.70
2022-12-18T04:01:17.527Z,12.52
2022-12-18T04:03:48.595Z,12.70
2022-12-18T04:06:19.140Z,14.07
2022-12-18T04:08:48.390Z,12.27
2022-12-18T04:11:19.423Z,12.70
2022-12-18T04:13:48.712Z,14.27
2022-12-18T04:16:21.664Z,12.27
2022-12-18T04:18:52.880Z,13.03
2022-12-18T04:21:22.489Z,12.77
2022-12-18T04:23:51.076Z,13.85
2022-12-18T04:26:21.444Z,12.77
2022-12-18T04:29:07.752Z,13.02
2022-12-18T04:31:35.345Z,13.20
2022-12-18T04:34:03.865Z,12.73
2022-12-18T04:36:37.999Z,12.85
2022-12-18T04:39:05.674Z,12.70
2022-12-18T04:41:33.576Z,12.02
2022-12-18T04:44:01.420Z,12.77
2022-12-18T04:46:28.984Z,12.98
2022-12-18T04:48:56.531Z,12.75
2022-12-18T04:51:26.593Z,11.93
2022-12-18T04:53:54.846Z,12.05
2022-12-18T04:56:22.510Z,13.87
2022-12-18T04:58:50.476Z,13.18
2022-12-18T05:01:19.447Z,12.02
2022-12-18T05:03:47.205Z,13.38
2022-12-18T05:06:15.096Z,16.67
2022-12-18T05:08:42.628Z,14.50
2022-12-18T05:11:12.749Z,15.15
2022-12-18T05:13:40.595Z,16.17
2022-12-18T05:16:09.343Z,15.02
2022-12-18T05:18:37.310Z,14.77
2022-12-18T05:21:05.731Z,15.27
2022-12-18T05:23:36.342Z,15.07
2022-12-18T05:26:06.333Z,15.02
2022-12-18T05:28:36.019Z,14.63
2022-12-18T05:31:05.345Z,13.52
2022-12-18T05:33:35.659Z,12.40
2022-12-18T05:36:05.236Z,12.30
2022-12-18T05:38:34.637Z,13.85
2022-12-18T05:41:02.476Z,13.30
2022-12-18T05:43:30.288Z,13.75
2022-12-18T05:45:58.565Z,14.37
2022-12-18T05:48:27.177Z,12.15
2022-12-18T05:50:54.706Z,14.70
2022-12-18T05:53:22.264Z,12.82
2022-12-18T05:55:49.878Z,14.63
2022-12-18T05:58:17.608Z,15.97
2022-12-18T06:00:47.108Z,15.07
2022-12-18T06:03:15.069Z,14.50
2022-12-18T06:05:45.046Z,13.60
2022-12-18T06:08:14.089Z,13.65
2022-12-18T06:10:42.690Z,14.83
2022-12-18T06:13:10.244Z,15.10
2022-12-18T06:15:38.367Z,17.80
2022-12-18T06:18:06.093Z,14.45
2022-12-18T06:20:34.173Z,14.65
2022-12-18T06:23:01.790Z,15.30
2022-12-18T06:25:29.516Z,15.90
2022-12-18T06:27:57.285Z,16.35
2022-12-18T06:30:24.822Z,17.52
2022-12-18T06:32:56.749Z,14.13
2022-12-18T06:35:24.578Z,12.90
2022-12-18T06:37:52.112Z,14.70
2022-12-18T06:40:20.052Z,13.13
2022-12-18T06:42:47.667Z,13.45
2022-12-18T06:45:17.029Z,13.52
2022-12-18T06:47:44.713Z,27.90
2022-12-18T06:50:12.898Z,19.42
2022-12-18T06:52:45.242Z,14.90
2022-12-18T06:55:12.728Z,14.13
2022-12-18T06:57:40.249Z,15.15
2022-12-18T07:00:08.678Z,15.53
2022-12-18T07:02:36.578Z,15.50
2022-12-18T07:05:10.311Z,16.80
2022-12-18T07:07:39.170Z,15.73
2022-12-18T07:10:06.933Z,15.05
2022-12-18T07:12:34.521Z,14.77
2022-12-18T07:15:02.080Z,14.32
2022-12-18T07:17:30.622Z,15.50
2022-12-18T07:19:58.043Z,15.43
2022-12-18T07:22:27.139Z,13.57
2022-12-18T07:24:54.597Z,15.03
2022-12-18T07:27:23.099Z,15.07
2022-12-18T07:29:50.639Z,15.40
2022-12-18T07:32:18.230Z,12.98
2022-12-18T07:34:46.174Z,13.48
2022-12-18T07:37:14.733Z,17.90
2022-12-18T07:39:42.417Z,20.90
2022-12-18T07:42:28.762Z,19.65
2022-12-18T07:44:56.228Z,17.92
2022-12-18T07:47:24.232Z,14.23
2022-12-18T07:49:51.735Z,15.07
2022-12-18T07:52:25.613Z,16.38
2022-12-18T07:54:53.687Z,13.52
2022-12-18T07:57:48.844Z,13.60
2022-12-18T08:00:09.639Z,16.95
2022-12-18T08:02:39.993Z,15.27
2022-12-18T08:05:07.816Z,15.10
2022-12-18T08:07:35.308Z,13.77
2022-12-18T08:10:03.255Z,14.00
2022-12-18T08:12:31.772Z,13.88
2022-12-18T08:14:59.289Z,12.87
2022-12-18T08:17:26.850Z,14.63
2022-12-18T08:19:54.362Z,14.77
2022-12-18T08:22:21.868Z,14.45
2022-12-18T08:24:49.400Z,14.68
2022-12-18T08:27:32.226Z,13.33
2022-12-18T08:30:00.172Z,13.98
2022-12-18T08:32:28.982Z,17.48
2022-12-18T08:34:56.576Z,18.33
2022-12-18T08:37:24.121Z,14.52
2022-12-18T08:39:51.738Z,12.03
2022-12-18T08:42:38.739Z,13.53
2022-12-18T08:45:06.709Z,13.68
2022-12-18T08:47:34.231Z,14.05
2022-12-18T08:50:02.078Z,13.18
2022-12-18T08:52:29.763Z,10.53
2022-12-18T08:54:57.235Z,12.23
2022-12-18T08:57:24.737Z,12.90
2022-12-18T08:59:52.798Z,10.88
2022-12-18T09:02:20.609Z,11.73
2022-12-18T09:04:53.825Z,10.45
2022-12-18T09:07:24.752Z,8.98
2022-12-18T09:09:52.301Z,9.73
2022-12-18T09:12:19.809Z,10.65
2022-12-18T09:14:47.340Z,9.40
2022-12-18T09:17:14.931Z,10.13
2022-12-18T09:19:43.291Z,9.53
2022-12-18T09:22:11.602Z,9.75
2022-12-18T09:24:39.239Z,12.07
2022-12-18T09:27:06.983Z,10.38
2022-12-18T09:29:35.513Z,10.77
2022-12-18T09:32:04.342Z,10.93
2022-12-18T09:34:31.844Z,10.07
2022-12-18T09:36:59.440Z,11.07
2022-12-18T09:39:27.065Z,12.13
2022-12-18T09:41:58.035Z,9.87
2022-12-18T09:44:25.620Z,12.60
2022-12-18T09:47:13.026Z,11.20
2022-12-18T09:49:44.497Z,9.98
2022-12-18T09:52:35.389Z,9.75
2022-12-18T09:55:15.160Z,10.73
2022-12-18T09:57:52.317Z,9.90
2022-12-18T10:00:22.486Z,10.93
2022-12-18T10:02:52.975Z,10.13
2022-12-18T10:05:47.506Z,10.27
2022-12-18T10:08:40.149Z,9.63
2022-12-18T10:11:35.682Z,9.87
2022-12-18T10:14:15.425Z,10.68
2022-12-18T10:16:57.434Z,10.35
2022-12-18T10:19:41.129Z,10.25
2022-12-18T10:22:19.737Z,10.15
2022-12-18T10:25:06.430Z,10.93
2022-12-18T10:27:34.608Z,11.23
2022-12-18T10:30:13.988Z,12.45
2022-12-18T10:32:42.034Z,12.00
2022-12-18T10:35:26.454Z,12.80
2022-12-18T10:38:21.659Z,11.90
2022-12-18T10:41:12.468Z,12.88
2022-12-18T10:43:41.806Z,12.57
2022-12-18T10:46:09.488Z,11.07
2022-12-18T10:48:48.276Z,12.65
2022-12-18T10:51:36.561Z,11.77
2022-12-18T10:54:13.989Z,10.07
2022-12-18T10:56:42.249Z,10.48
2022-12-18T10:59:15.431Z,11.00
2022-12-18T11:02:01.301Z,11.27
2022-12-18T11:04:31.991Z,10.73
2022-12-18T11:07:04.965Z,11.43
2022-12-18T11:09:40.665Z,10.73
2022-12-18T11:12:20.851Z,11.73
2022-12-18T11:14:52.008Z,12.88
2022-12-18T11:17:36.992Z,11.33
2022-12-18T11:20:29.246Z,10.95
2022-12-18T11:22:59.331Z,12.07
2022-12-18T11:25:33.152Z,11.32
2022-12-18T11:28:24.322Z,11.43
2022-12-18T11:31:12.817Z,11.33
2022-12-18T11:34:04.738Z,11.57
2022-12-18T11:36:39.312Z,12.75
2022-12-18T11:39:18.383Z,12.30
2022-12-18T11:42:13.875Z,13.00
2022-12-18T11:44:46.131Z,11.10
2022-12-18T11:47:41.159Z,13.15
2022-12-18T11:50:19.823Z,13.02
2022-12-18T11:52:50.414Z,10.75
2022-12-18T11:55:34.054Z,12.35
2022-12-18T11:58:40.265Z,10.80
2022-12-18T12:01:20.140Z,11.15
2022-12-18T12:04:31.917Z,10.57
2022-12-18T12:07:11.076Z,10.88
2022-12-18T12:10:10.836Z,9.75
2022-12-18T12:13:00.490Z,9.23
2022-12-18T12:15:45.021Z,9.85
2022-12-18T12:18:30.642Z,9.77
2022-12-18T12:21:05.087Z,8.38
2022-12-18T12:23:41.479Z,9.80
2022-12-18T12:26:27.269Z,9.07
2022-12-18T12:29:10.271Z,10.35
2022-12-18T12:31:59.564Z,8.90
2022-12-18T12:35:09.688Z,9.77
2022-12-18T12:37:55.918Z,9.15
2022-12-18T12:40:51.357Z,10.57
2022-12-18T12:43:23.503Z,10.18
2022-12-18T12:45:56.584Z,9.20
2022-12-18T12:48:35.372Z,11.55
2022-12-18T12:51:10.723Z,9.93
2022-12-18T12:53:40.890Z,10.27
2022-12-18T12:56:13.289Z,9.93
2022-12-18T12:58:56.441Z,9.30
2022-12-18T13:01:33.724Z,7.97
2022-12-18T13:04:21.603Z,9.02
2022-12-18T13:06:54.394Z,8.70
2022-12-18T13:09:21.951Z,8.05
2022-12-18T13:12:08.626Z,9.50
2022-12-18T13:14:39.402Z,9.30
2022-12-18T13:17:21.891Z,8.40
2022-12-18T13:20:04.343Z,9.10
2022-12-18T13:22:37.818Z,9.68
2022-12-18T13:25:33.057Z,10.75
2022-12-18T13:28:09.630Z,8.73
2022-12-18T13:30:42.950Z,8.80
2022-12-18T13:33:20.647Z,9.60
2022-12-18T13:35:48.157Z,10.13
2022-12-18T13:38:41.600Z,7.60
2022-12-18T13:41:18.906Z,8.98
2022-12-18T13:43:55.208Z,8.27
2022-12-18T13:46:43.871Z,8.40
2022-12-18T13:49:14.293Z,9.82
2022-12-18T13:51:45.405Z,9.45
2022-12-18T13:54:41.125Z,10.75
2022-12-18T13:57:28.881Z,14.48
2022-12-18T13:59:57.367Z,11.13
2022-12-18T14:02:27.540Z,9.77
2022-12-18T14:04:55.512Z,9.38
2022-12-18T14:07:31.368Z,9.45
2022-12-18T14:10:18.765Z,10.17
2022-12-18T14:13:00.322Z,11.60
2022-12-18T14:15:31.822Z,11.93
2022-12-18T14:18:46.272Z,12.00
2022-12-18T14:21:27.881Z,13.80
2022-12-18T14:24:19.680Z,12.83
2022-12-18T14:26:50.291Z,13.47
2022-12-18T14:29:26.156Z,15.00
2022-12-18T14:32:17.774Z,17.08
2022-12-18T14:34:51.354Z,15.60
2022-12-18T14:37:23.959Z,22.80
2022-12-18T14:39:55.516Z,25.70
2022-12-18T14:42:23.193Z,25.27
2022-12-18T14:45:12.491Z,23.02
2022-12-18T14:47:38.313Z,20.33
2022-12-18T14:50:14.920Z,16.13
2022-12-18T14:52:42.651Z,14.53
2022-12-18T14:55:21.235Z,14.43
2022-12-18T14:57:53.564Z,13.80
2022-12-18T15:00:26.138Z,14.02
2022-12-18T15:02:56.768Z,14.73
2022-12-18T15:05:30.357Z,15.40
2022-12-18T15:08:00.472Z,18.20
2022-12-18T15:10:29.463Z,22.27
2022-12-18T15:12:57.252Z,22.33
2022-12-18T15:15:34.224Z,23.70
2022-12-18T15:18:02.909Z,24.43
2022-12-18T15:21:04.378Z,28.70
2022-12-18T15:23:48.205Z,29.60
2022-12-18T15:26:38.051Z,28.38
2022-12-18T15:29:07.469Z,24.37
2022-12-18T15:31:36.672Z,25.83
2022-12-18T15:34:10.532Z,26.35
2022-12-18T15:36:38.994Z,25.25
2022-12-18T15:39:07.086Z,23.98
2022-12-18T15:41:37.239Z,25.87
2022-12-18T15:44:23.919Z,25.05
2022-12-18T15:46:51.774Z,26.38
2022-12-18T15:49:19.648Z,22.55
2022-12-18T15:51:53.039Z,23.50
2022-12-18T15:54:41.540Z,25.63
2022-12-18T15:57:33.499Z,36.90
2022-12-18T16:00:01.559Z,24.88
2022-12-18T16:02:30.017Z,25.88
2022-12-18T16:04:57.986Z,22.40
2022-12-18T16:07:28.124Z,17.63
2022-12-18T16:09:59.069Z,13.60
2022-12-18T16:12:28.774Z,13.73
2022-12-18T16:14:56.435Z,12.88
2022-12-18T16:17:24.200Z,13.27
2022-12-18T16:19:52.156Z,12.73
2022-12-18T16:22:26.057Z,12.10
2022-12-18T16:24:55.306Z,12.98
2022-12-18T16:27:24.488Z,13.25
2022-12-18T16:29:52.308Z,13.13
2022-12-18T16:32:22.260Z,16.80
2022-12-18T16:34:51.305Z,21.50
2022-12-18T16:37:19.358Z,18.48
2022-12-18T16:39:47.596Z,20.83
2022-12-18T16:42:20.553Z,23.15
2022-12-18T16:44:50.187Z,20.30
2022-12-18T16:47:18.169Z,23.15
2022-12-18T16:49:46.673Z,18.80
2022-12-18T16:52:14.594Z,18.08
2022-12-18T16:54:42.435Z,16.80
2022-12-18T16:57:15.291Z,14.33
2022-12-18T16:59:43.434Z,13.80
2022-12-18T17:02:18.233Z,14.27
2022-12-18T17:04:49.525Z,13.50
2022-12-18T17:07:18.247Z,14.27
2022-12-18T17:09:46.097Z,13.30
2022-12-18T17:12:14.993Z,12.75
2022-12-18T17:14:43.129Z,13.75
2022-12-18T17:17:26.398Z,18.40
2022-12-18T17:19:54.317Z,17.35
2022-12-18T17:22:23.442Z,14.77
2022-12-18T17:24:51.583Z,14.98
2022-12-18T17:27:19.420Z,16.63
2022-12-18T17:29:48.651Z,16.55
2022-12-18T17:32:17.917Z,16.73
2022-12-18T17:34:45.819Z,14.93
2022-12-18T17:37:13.976Z,16.20
2022-12-18T17:39:42.244Z,16.20
2022-12-18T17:42:12.049Z,16.08
2022-12-18T17:44:43.344Z,17.88
2022-12-18T17:47:12.997Z,17.70
2022-12-18T17:49:41.094Z,17.27
2022-12-18T17:52:09.161Z,20.63
2022-12-18T17:54:39.964Z,18.85
2022-12-18T17:57:08.104Z,19.77
2022-12-18T17:59:36.058Z,19.50
2022-12-18T18:02:04.104Z,19.13
2022-12-18T18:04:32.718Z,17.35
2022-12-18T18:07:00.504Z,17.70
2022-12-18T18:09:28.137Z,19.73
2022-12-18T18:12:17.315Z,20.63
2022-12-18T18:14:45.278Z,18.17
2022-12-18T18:17:13.431Z,21.60
2022-12-18T18:19:42.195Z,22.65
2022-12-18T18:22:12.084Z,21.58
2022-12-18T18:24:40.994Z,23.53
2022-12-18T18:27:08.884Z,24.02
2022-12-18T18:29:36.548Z,23.17
2022-12-18T18:32:04.906Z,20.55
2022-12-18T18:34:33.056Z,23.17
2022-12-18T18:37:02.026Z,20.20
2022-12-18T18:39:30.010Z,21.33
2022-12-18T18:41:57.951Z,20.95
2022-12-18T18:44:26.471Z,24.00
2022-12-18T18:46:58.616Z,25.05
2022-12-18T18:49:28.089Z,26.27
2022-12-18T18:51:57.433Z,25.85
2022-12-18T18:54:25.924Z,21.90
2022-12-18T18:57:19.422Z,19.05
2022-12-18T18:59:42.341Z,20.23
2022-12-18T19:02:13.305Z,19.63
2022-12-18T19:04:46.242Z,18.08
2022-12-18T19:07:18.484Z,15.60
2022-12-18T19:10:05.137Z,15.20
2022-12-18T19:12:53.418Z,14.65
2022-12-18T19:15:22.540Z,15.87
2022-12-18T19:17:50.301Z,15.88
2022-12-18T19:20:19.933Z,20.77
2022-12-18T19:22:48.005Z,19.45
2022-12-18T19:25:28.391Z,18.30
2022-12-18T19:28:10.995Z,17.30
2022-12-18T19:30:46.302Z,13.77
2022-12-18T19:33:41.639Z,14.10
2022-12-18T19:36:02.150Z,15.05
2022-12-18T19:38:33.467Z,15.35
2022-12-18T19:41:05.789Z,14.40
2022-12-18T19:43:37.478Z,13.75
2022-12-18T19:46:07.370Z,14.48
2022-12-18T19:48:35.585Z,13.65
2022-12-18T19:51:24.778Z,14.02
2022-12-18T19:53:58.190Z,12.93
2022-12-18T19:56:29.532Z,12.60
2022-12-18T19:58:57.985Z,13.27
2022-12-18T20:01:27.773Z,14.07
2022-12-18T20:03:56.816Z,14.05
2022-12-18T20:06:35.079Z,12.63
2022-12-18T20:09:06.322Z,12.80
2022-12-18T20:11:41.571Z,11.57
2022-12-18T20:14:11.097Z,13.15
2022-12-18T20:16:39.123Z,13.13
2022-12-18T20:19:07.222Z,12.73
2022-12-18T20:21:36.021Z,13.57
2022-12-18T20:24:04.044Z,13.27
2022-12-18T20:26:31.978Z,12.75
2022-12-18T20:29:00.217Z,11.48
2022-12-18T20:31:28.156Z,11.17
2022-12-18T20:34:00.303Z,11.15
2022-12-18T20:36:30.702Z,11.25
2022-12-18T20:39:01.616Z,11.63
2022-12-18T20:41:37.923Z,11.52
2022-12-18T20:44:10.428Z,12.50
2022-12-18T20:46:50.178Z,11.38
2022-12-18T20:49:18.179Z,12.93
2022-12-18T20:51:46.188Z,12.00
2022-12-18T20:54:13.713Z,14.13
2022-12-18T20:56:41.213Z,15.23
2022-12-18T20:59:09.527Z,13.80
2022-12-18T21:01:38.902Z,18.58
2022-12-18T21:04:13.054Z,12.77
2022-12-18T21:06:42.022Z,13.10
2022-12-18T21:09:11.327Z,16.00
2022-12-18T21:11:57.382Z,12.10
2022-12-18T21:14:27.470Z,12.95
2022-12-18T21:16:56.448Z,13.20
2022-12-18T21:19:27.113Z,12.77
2022-12-18T21:21:56.605Z,13.40
2022-12-18T21:24:24.774Z,12.57
2022-12-18T21:26:52.714Z,12.45
2022-12-18T21:29:24.969Z,13.18
2022-12-18T21:31:54.695Z,12.80
2022-12-18T21:34:28.219Z,11.90
2022-12-18T21:36:58.615Z,11.95
2022-12-18T21:39:27.929Z,14.05
2022-12-18T21:42:14.755Z,11.77
2022-12-18T21:44:43.892Z,12.13
2022-12-18T21:47:16.889Z,12.37
2022-12-18T21:49:52.869Z,10.80
2022-12-18T21:52:27.294Z,12.27
2022-12-18T21:55:09.063Z,12.13
2022-12-18T21:57:40.281Z,10.93
2022-12-18T22:00:18.186Z,11.60
2022-12-18T22:02:48.574Z,13.27
2022-12-18T22:05:35.943Z,11.98
2022-12-18T22:08:03.523Z,12.85
2022-12-18T22:10:31.104Z,10.75
2022-12-18T22:12:59.365Z,12.30
2022-12-18T22:15:27.102Z,12.10
2022-12-18T22:17:59.545Z,12.52
2022-12-18T22:20:29.742Z,10.90
2022-12-18T22:22:58.761Z,11.25
2022-12-18T22:25:28.524Z,11.13
2022-12-18T22:28:14.939Z,10.93
2022-12-18T22:30:43.731Z,11.38
2022-12-18T22:33:11.410Z,11.45
2022-12-18T22:35:39.010Z,10.77
2022-12-18T22:38:06.806Z,11.07
2022-12-18T22:40:34.364Z,9.88
2022-12-18T22:43:01.879Z,10.88
2022-12-18T22:45:29.473Z,11.23
2022-12-18T22:47:57.381Z,12.93
2022-12-18T22:50:24.982Z,11.50
2022-12-18T22:52:52.561Z,11.13
2022-12-18T22:55:20.489Z,11.38
2022-12-18T22:57:50.303Z,11.40
2022-12-18T23:00:23.921Z,13.00
2022-12-18T23:02:59.702Z,12.37
2022-12-18T23:05:29.780Z,11.13
2022-12-18T23:07:58.106Z,11.55
2022-12-18T23:10:25.952Z,11.57
2022-12-18T23:12:53.588Z,12.50
2022-12-18T23:15:28.375Z,13.43
2022-12-18T23:17:59.852Z,11.30
2022-12-18T23:20:28.345Z,11.73
2022-12-18T23:22:55.984Z,11.20
2022-12-18T23:25:23.508Z,13.77
2022-12-18T23:27:51.093Z,12.23
2022-12-18T23:30:18.633Z,13.43
2022-12-18T23:32:46.152Z,12.98
2022-12-18T23:35:15.552Z,13.05
2022-12-18T23:38:00.511Z,11.77
2022-12-18T23:40:29.875Z,13.77
2022-12-18T23:42:59.075Z,12.43
2022-12-18T23:45:26.523Z,10.90
2022-12-18T23:47:54.104Z,11.68
2022-12-18T23:50:24.045Z,12.88
2022-12-18T23:52:56.971Z,12.67
2022-12-18T23:55:30.093Z,10.77
2022-12-18T23:57:57.674Z,12.80
